Terminal Aerodrome Forecast
Issued by NWS Louisville, KY

Home | Current Version | Previous Version | Text Only | Print | Product List | Glossary On
Versions: 1 2 3 4 5 6 7 8 9 10 11 12 13 14 15 16 17 18 19 20 21 22 23 24 25
000
FTUS43 KLMK 031100 AAA
TAFLEX
TAF AMD
KLEX 031107Z 0311/0406 13008KT P6SM SCT025 BKN035
      TEMPO 0311/0312 BKN025
     FM031200 15009KT 6SM BR BKN015
      TEMPO 0314/0317 4SM -SHRA BR BKN008
     FM031700 20013G20KT 3SM -RA BKN008
     FM040000 22013KT 3SM -RA BR BKN004=

USA.gov is the U.S. government's official web portal to all federal, state and local government web resources and services.